sensor_id;sensor_type;location;lat;lon;timestamp;temperature;humidity
23495;DHT22;26107;50.832;2.950;2023-05-10T00:06:52;12.90;99.90
23495;DHT22;26107;50.832;2.950;2023-05-10T00:21:53;13.00;99.90
23495;DHT22;26107;50.832;2.950;2023-05-10T00:36:53;12.80;99.90
23495;DHT22;26107;50.832;2.950;2023-05-10T00:51:54;12.90;99.90
23495;DHT22;26107;50.832;2.950;2023-05-10T01:06:55;12.80;99.90
23495;DHT22;26107;50.832;2.950;2023-05-10T01:37:13;12.80;99.90
23495;DHT22;26107;50.832;2.950;2023-05-10T01:52:16;12.80;99.90
23495;DHT22;26107;50.832;2.950;2023-05-10T02:07:20;12.70;99.90
23495;DHT22;26107;50.832;2.950;2023-05-10T02:22:22;12.40;99.90
23495;DHT22;26107;50.832;2.950;2023-05-10T02:37:24;12.20;99.90
23495;DHT22;26107;50.832;2.950;2023-05-10T02:52:28;12.00;99.90
23495;DHT22;26107;50.832;2.950;2023-05-10T03:07:30;12.00;99.90
23495;DHT22;26107;50.832;2.950;2023-05-10T03:22:38;12.10;99.90
23495;DHT22;26107;50.832;2.950;2023-05-10T03:37:41;12.10;99.90
23495;DHT22;26107;50.832;2.950;2023-05-10T03:52:41;12.20;99.90
23495;DHT22;26107;50.832;2.950;2023-05-10T04:07:42;12.30;99.90
23495;DHT22;26107;50.832;2.950;2023-05-10T04:22:44;12.50;99.90
23495;DHT22;26107;50.832;2.950;2023-05-10T04:37:45;12.80;99.90
23495;DHT22;26107;50.832;2.950;2023-05-10T04:52:45;12.90;99.90
23495;DHT22;26107;50.832;2.950;2023-05-10T05:07:46;12.50;99.90
23495;DHT22;26107;50.832;2.950;2023-05-10T05:22:46;12.60;99.90
23495;DHT22;26107;50.832;2.950;2023-05-10T05:37:47;12.70;99.90
23495;DHT22;26107;50.832;2.950;2023-05-10T05:52:48;12.80;99.90
23495;DHT22;26107;50.832;2.950;2023-05-10T06:07:48;13.00;99.90
23495;DHT22;26107;50.832;2.950;2023-05-10T06:22:49;13.00;99.90
23495;DHT22;26107;50.832;2.950;2023-05-10T06:37:50;12.70;99.90
23495;DHT22;26107;50.832;2.950;2023-05-10T06:52:51;12.70;99.90
23495;DHT22;26107;50.832;2.950;2023-05-10T07:07:52;12.70;99.90
23495;DHT22;26107;50.832;2.950;2023-05-10T07:22:52;13.30;99.90
23495;DHT22;26107;50.832;2.950;2023-05-10T07:37:53;13.40;99.90
23495;DHT22;26107;50.832;2.950;2023-05-10T07:52:54;13.60;99.90
23495;DHT22;26107;50.832;2.950;2023-05-10T08:07:54;13.80;99.90
23495;DHT22;26107;50.832;2.950;2023-05-10T08:22:55;14.00;99.90
23495;DHT22;26107;50.832;2.950;2023-05-10T08:37:55;14.10;99.90
23495;DHT22;26107;50.832;2.950;2023-05-10T08:52:58;14.30;99.90
23495;DHT22;26107;50.832;2.950;2023-05-10T09:08:00;14.20;99.90
23495;DHT22;26107;50.832;2.950;2023-05-10T09:23:01;14.20;99.90
23495;DHT22;26107;50.832;2.950;2023-05-10T09:38:04;14.10;99.90
23495;DHT22;26107;50.832;2.950;2023-05-10T09:53:04;14.70;99.90
23495;DHT22;26107;50.832;2.950;2023-05-10T10:08:06;14.60;99.90
23495;DHT22;26107;50.832;2.950;2023-05-10T10:23:08;14.80;99.90
23495;DHT22;26107;50.832;2.950;2023-05-10T10:38:09;15.20;99.90
23495;DHT22;26107;50.832;2.950;2023-05-10T10:53:12;15.80;99.90
23495;DHT22;26107;50.832;2.950;2023-05-10T11:08:32;16.00;99.90
23495;DHT22;26107;50.832;2.950;2023-05-10T11:38:40;16.00;99.90
23495;DHT22;26107;50.832;2.950;2023-05-10T11:53:41;16.60;99.90
23495;DHT22;26107;50.832;2.950;2023-05-10T12:08:47;16.90;99.90
23495;DHT22;26107;50.832;2.950;2023-05-10T12:23:52;17.00;99.90
23495;DHT22;26107;50.832;2.950;2023-05-10T12:39:02;17.10;99.90
23495;DHT22;26107;50.832;2.950;2023-05-10T12:54:03;17.10;99.90
23495;DHT22;26107;50.832;2.950;2023-05-10T13:09:03;17.20;99.90
23495;DHT22;26107;50.832;2.950;2023-05-10T13:24:04;17.50;99.90
23495;DHT22;26107;50.832;2.950;2023-05-10T13:39:06;17.30;99.90
23495;DHT22;26107;50.832;2.950;2023-05-10T13:54:06;17.10;99.90
23495;DHT22;26107;50.832;2.950;2023-05-10T14:09:07;17.20;99.90
23495;DHT22;26107;50.832;2.950;2023-05-10T14:24:08;17.50;99.90
23495;DHT22;26107;50.832;2.950;2023-05-10T14:39:08;18.00;99.90
23495;DHT22;26107;50.832;2.950;2023-05-10T14:54:10;18.20;99.90
23495;DHT22;26107;50.832;2.950;2023-05-10T15:09:11;18.30;99.90
23495;DHT22;26107;50.832;2.950;2023-05-10T15:24:11;18.80;99.90
23495;DHT22;26107;50.832;2.950;2023-05-10T15:39:13;19.00;99.90
23495;DHT22;26107;50.832;2.950;2023-05-10T15:54:13;19.10;99.90
23495;DHT22;26107;50.832;2.950;2023-05-10T16:09:14;18.80;99.90
23495;DHT22;26107;50.832;2.950;2023-05-10T16:24:15;17.50;99.90
23495;DHT22;26107;50.832;2.950;2023-05-10T16:39:15;16.20;99.90
23495;DHT22;26107;50.832;2.950;2023-05-10T16:54:16;16.40;99.90
23495;DHT22;26107;50.832;2.950;2023-05-10T17:09:17;17.40;99.90
23495;DHT22;26107;50.832;2.950;2023-05-10T17:24:19;17.10;99.90
23495;DHT22;26107;50.832;2.950;2023-05-10T17:39:20;16.60;99.90
23495;DHT22;26107;50.832;2.950;2023-05-10T17:54:21;18.90;99.90
23495;DHT22;26107;50.832;2.950;2023-05-10T18:09:21;22.20;99.90
23495;DHT22;26107;50.832;2.950;2023-05-10T18:24:22;21.80;99.90
23495;DHT22;26107;50.832;2.950;2023-05-10T18:39:22;18.50;99.90
23495;DHT22;26107;50.832;2.950;2023-05-10T18:54:23;16.40;99.90
23495;DHT22;26107;50.832;2.950;2023-05-10T19:09:25;15.30;99.90
23495;DHT22;26107;50.832;2.950;2023-05-10T19:24:26;14.90;99.90
23495;DHT22;26107;50.832;2.950;2023-05-10T19:39:27;14.60;99.90
23495;DHT22;26107;50.832;2.950;2023-05-10T19:54:27;14.30;99.90
23495;DHT22;26107;50.832;2.950;2023-05-10T20:09:28;14.60;99.90
23495;DHT22;26107;50.832;2.950;2023-05-10T20:24:28;14.80;99.90
23495;DHT22;26107;50.832;2.950;2023-05-10T20:39:29;14.60;99.90
23495;DHT22;26107;50.832;2.950;2023-05-10T20:54:30;13.10;99.90
23495;DHT22;26107;50.832;2.950;2023-05-10T21:09:30;13.30;99.90
23495;DHT22;26107;50.832;2.950;2023-05-10T21:24:31;13.60;99.90
23495;DHT22;26107;50.832;2.950;2023-05-10T21:39:32;13.30;99.90
23495;DHT22;26107;50.832;2.950;2023-05-10T21:54:33;13.30;99.90
23495;DHT22;26107;50.832;2.950;2023-05-10T22:09:34;13.10;99.90
23495;DHT22;26107;50.832;2.950;2023-05-10T22:24:35;13.00;99.90
23495;DHT22;26107;50.832;2.950;2023-05-10T22:39:36;13.30;99.90
23495;DHT22;26107;50.832;2.950;2023-05-10T22:54:37;13.10;99.90
23495;DHT22;26107;50.832;2.950;2023-05-10T23:09:37;13.20;99.90
23495;DHT22;26107;50.832;2.950;2023-05-10T23:24:38;13.20;99.90
23495;DHT22;26107;50.832;2.950;2023-05-10T23:39:38;12.90;99.90
23495;DHT22;26107;50.832;2.950;2023-05-10T23:54:39;13.10;99.90
